createdAt,value
2022-12-31T05:22:50.131Z,74.2
2022-12-31T11:22:50.290Z,73
2022-12-31T11:27:50.157Z,73.2
2022-12-31T11:32:50.162Z,73.2
2022-12-31T11:42:50.188Z,73
2022-12-31T11:52:50.162Z,73
2022-12-31T11:57:50.166Z,72.9
2022-12-31T12:07:50.193Z,73.1
2022-12-31T12:12:50.161Z,73.1
2022-12-31T12:17:50.171Z,73
2022-12-31T12:27:50.181Z,73
2022-12-31T12:37:50.164Z,73.1
2022-12-31T12:42:50.183Z,73.9
2022-12-31T13:02:50.253Z,73.4
2022-12-31T13:07:50.168Z,73.5
2022-12-31T13:17:55.055Z,73.5
2022-12-31T13:47:50.209Z,73.9
2022-12-31T13:52:50.184Z,73.4
2022-12-31T14:02:50.311Z,73.3
2022-12-31T14:07:50.208Z,73.1
2022-12-31T14:22:50.187Z,73.3
2022-12-31T14:32:50.213Z,73.7
2022-12-31T14:37:50.190Z,73.5
2022-12-31T14:42:50.230Z,73.6
2022-12-31T15:07:50.190Z,74
2022-12-31T15:17:50.246Z,74.1
2022-12-31T15:22:50.184Z,73.8
2022-12-31T15:27:50.187Z,73.8
2022-12-31T15:37:50.222Z,73.8
2022-12-31T15:47:50.209Z,73.7
2022-12-31T15:57:50.218Z,74
2022-12-31T16:02:50.328Z,74.1
2022-12-31T16:17:50.216Z,74
2022-12-31T16:27:50.386Z,74.1
2022-12-31T16:32:50.217Z,74.2
2022-12-31T16:52:50.235Z,74.5
2022-12-31T16:57:50.207Z,74.6
2022-12-31T17:22:50.230Z,74.3
2022-12-31T17:27:50.205Z,74.3
2022-12-31T17:52:50.227Z,73.6
2022-12-31T17:57:50.205Z,73.6
2022-12-31T18:07:50.213Z,73.4
2022-12-31T18:27:50.238Z,73.2
2022-12-31T18:57:50.244Z,72.7
2022-12-31T19:07:50.217Z,72.4
2022-12-31T19:12:50.215Z,72.2
2022-12-31T19:17:50.358Z,72.1
2022-12-31T19:22:50.233Z,71.9
2022-12-31T19:37:50.247Z,71.1
2022-12-31T19:42:50.223Z,71.3
2022-12-31T19:47:50.322Z,70.9
2022-12-31T19:52:50.222Z,70.9
2022-12-31T20:12:50.252Z,70.3
2022-12-31T20:17:50.222Z,70.2
2022-12-31T20:22:50.227Z,70
2022-12-31T20:42:50.249Z,69.8
2022-12-31T20:47:50.232Z,69.9
2022-12-31T20:52:50.259Z,69.7
2022-12-31T20:57:50.232Z,69.7
2022-12-31T21:02:57.903Z,70.3
2022-12-31T21:12:50.238Z,69.5
2022-12-31T21:17:50.258Z,69.4
2022-12-31T21:27:50.257Z,69.2
2022-12-31T21:32:50.236Z,69.2
2022-12-31T21:42:50.245Z,69
2022-12-31T21:52:50.272Z,68.8
2022-12-31T22:07:50.244Z,68.7
2022-12-31T22:12:50.311Z,68.7
2022-12-31T22:22:50.257Z,68.6
2022-12-31T22:28:27.455Z,68.6
2022-12-31T22:38:03.288Z,68
2022-12-31T22:42:50.263Z,68.1
2022-12-31T22:52:50.260Z,68.1
2022-12-31T23:12:50.294Z,67.8
2022-12-31T23:17:50.271Z,67.8
2022-12-31T23:27:50.266Z,68
2022-12-31T23:32:50.294Z,67.3
2022-12-31T23:37:50.267Z,67
2022-12-31T23:42:50.266Z,67.3
2022-12-31T23:47:50.270Z,67.1
2022-12-31T23:57:50.299Z,66.9
